sensor_id;sensor_type;location;lat;lon;timestamp;temperature;humidity
66343;DHT22;53144;51.524;5.080;2023-04-24T00:01:59;9.63;96.98
66343;DHT22;53144;51.524;5.080;2023-04-24T00:04:26;9.65;97.31
66343;DHT22;53144;51.524;5.080;2023-04-24T00:06:51;9.67;97.27
66343;DHT22;53144;51.524;5.080;2023-04-24T00:09:22;9.54;97.41
66343;DHT22;53144;51.524;5.080;2023-04-24T00:11:47;9.55;97.58
66343;DHT22;53144;51.524;5.080;2023-04-24T00:14:13;9.55;97.64
66343;DHT22;53144;51.524;5.080;2023-04-24T00:16:38;9.52;97.85
66343;DHT22;53144;51.524;5.080;2023-04-24T00:19:03;9.49;97.77
66343;DHT22;53144;51.524;5.080;2023-04-24T00:21:31;9.51;98.01
66343;DHT22;53144;51.524;5.080;2023-04-24T00:23:58;9.44;98.09
66343;DHT22;53144;51.524;5.080;2023-04-24T00:26:23;9.41;97.57
66343;DHT22;53144;51.524;5.080;2023-04-24T00:28:48;9.41;97.85
66343;DHT22;53144;51.524;5.080;2023-04-24T00:31:14;9.49;98.11
66343;DHT22;53144;51.524;5.080;2023-04-24T00:33:39;9.49;97.87
66343;DHT22;53144;51.524;5.080;2023-04-24T00:36:05;9.44;98.02
66343;DHT22;53144;51.524;5.080;2023-04-24T00:38:31;9.42;97.90
66343;DHT22;53144;51.524;5.080;2023-04-24T00:40:56;9.42;97.49
66343;DHT22;53144;51.524;5.080;2023-04-24T00:43:22;9.42;97.73
66343;DHT22;53144;51.524;5.080;2023-04-24T00:45:47;9.42;97.97
66343;DHT22;53144;51.524;5.080;2023-04-24T00:48:12;9.44;97.87
66343;DHT22;53144;51.524;5.080;2023-04-24T00:50:38;9.45;97.90
66343;DHT22;53144;51.524;5.080;2023-04-24T00:53:03;9.47;98.08
66343;DHT22;53144;51.524;5.080;2023-04-24T00:55:29;9.44;98.22
66343;DHT22;53144;51.524;5.080;2023-04-24T00:57:55;9.41;98.06
66343;DHT22;53144;51.524;5.080;2023-04-24T01:00:20;9.44;98.24
66343;DHT22;53144;51.524;5.080;2023-04-24T01:02:46;9.38;98.52
66343;DHT22;53144;51.524;5.080;2023-04-24T01:05:13;9.40;98.76
66343;DHT22;53144;51.524;5.080;2023-04-24T01:07:40;9.40;98.69
66343;DHT22;53144;51.524;5.080;2023-04-24T01:10:09;9.40;98.71
66343;DHT22;53144;51.524;5.080;2023-04-24T01:12:34;9.37;98.80
66343;DHT22;53144;51.524;5.080;2023-04-24T01:15:00;9.37;98.75
66343;DHT22;53144;51.524;5.080;2023-04-24T01:17:25;9.30;98.92
66343;DHT22;53144;51.524;5.080;2023-04-24T01:19:51;9.34;98.76
66343;DHT22;53144;51.524;5.080;2023-04-24T01:22:22;9.21;98.52
66343;DHT22;53144;51.524;5.080;2023-04-24T01:24:47;9.20;98.72
66343;DHT22;53144;51.524;5.080;2023-04-24T01:27:13;9.20;98.72
66343;DHT22;53144;51.524;5.080;2023-04-24T01:29:38;9.20;98.79
66343;DHT22;53144;51.524;5.080;2023-04-24T01:32:05;9.17;98.87
66343;DHT22;53144;51.524;5.080;2023-04-24T01:34:30;9.16;98.73
66343;DHT22;53144;51.524;5.080;2023-04-24T01:36:56;9.11;98.77
66343;DHT22;53144;51.524;5.080;2023-04-24T01:39:21;9.13;98.88
66343;DHT22;53144;51.524;5.080;2023-04-24T01:41:48;9.10;98.76
66343;DHT22;53144;51.524;5.080;2023-04-24T01:44:15;9.11;98.73
66343;DHT22;53144;51.524;5.080;2023-04-24T01:46:41;9.11;98.62
66343;DHT22;53144;51.524;5.080;2023-04-24T01:49:06;9.11;98.72
66343;DHT22;53144;51.524;5.080;2023-04-24T01:51:31;9.09;98.71
66343;DHT22;53144;51.524;5.080;2023-04-24T01:53:57;9.09;98.79
66343;DHT22;53144;51.524;5.080;2023-04-24T01:56:22;9.00;98.45
66343;DHT22;53144;51.524;5.080;2023-04-24T01:58:52;9.06;98.43
66343;DHT22;53144;51.524;5.080;2023-04-24T02:01:23;9.03;98.48
66343;DHT22;53144;51.524;5.080;2023-04-24T02:03:49;9.01;98.26
66343;DHT22;53144;51.524;5.080;2023-04-24T02:06:15;8.99;98.04
66343;DHT22;53144;51.524;5.080;2023-04-24T02:08:40;9.00;98.27
66343;DHT22;53144;51.524;5.080;2023-04-24T02:11:06;8.90;97.77
66343;DHT22;53144;51.524;5.080;2023-04-24T02:13:31;8.93;97.93
66343;DHT22;53144;51.524;5.080;2023-04-24T02:15:58;8.87;97.92
66343;DHT22;53144;51.524;5.080;2023-04-24T02:18:23;8.84;98.07
66343;DHT22;53144;51.524;5.080;2023-04-24T02:20:49;8.80;97.92
66343;DHT22;53144;51.524;5.080;2023-04-24T02:23:14;8.77;97.20
66343;DHT22;53144;51.524;5.080;2023-04-24T02:25:40;8.77;97.90
66343;DHT22;53144;51.524;5.080;2023-04-24T02:28:05;8.77;97.85
66343;DHT22;53144;51.524;5.080;2023-04-24T02:30:31;8.75;98.00
66343;DHT22;53144;51.524;5.080;2023-04-24T02:32:56;8.73;97.99
66343;DHT22;53144;51.524;5.080;2023-04-24T02:35:22;8.75;97.59
66343;DHT22;53144;51.524;5.080;2023-04-24T02:37:47;8.72;97.84
66343;DHT22;53144;51.524;5.080;2023-04-24T02:40:13;8.69;97.86
66343;DHT22;53144;51.524;5.080;2023-04-24T02:42:38;8.63;97.52
66343;DHT22;53144;51.524;5.080;2023-04-24T02:45:03;8.68;97.60
66343;DHT22;53144;51.524;5.080;2023-04-24T02:47:30;8.73;97.25
66343;DHT22;53144;51.524;5.080;2023-04-24T02:49:55;8.72;97.61
66343;DHT22;53144;51.524;5.080;2023-04-24T02:52:21;8.73;97.50
66343;DHT22;53144;51.524;5.080;2023-04-24T02:54:46;8.76;97.68
66343;DHT22;53144;51.524;5.080;2023-04-24T02:57:11;8.77;97.54
66343;DHT22;53144;51.524;5.080;2023-04-24T02:59:37;8.77;97.45
66343;DHT22;53144;51.524;5.080;2023-04-24T03:02:02;8.75;97.03
66343;DHT22;53144;51.524;5.080;2023-04-24T03:04:27;8.75;97.05
66343;DHT22;53144;51.524;5.080;2023-04-24T03:06:53;8.76;97.14
66343;DHT22;53144;51.524;5.080;2023-04-24T03:09:20;8.77;97.16
66343;DHT22;53144;51.524;5.080;2023-04-24T03:11:46;8.76;96.73
66343;DHT22;53144;51.524;5.080;2023-04-24T03:14:11;8.77;96.97
66343;DHT22;53144;51.524;5.080;2023-04-24T03:16:36;8.76;96.45
66343;DHT22;53144;51.524;5.080;2023-04-24T03:19:02;8.77;96.87
66343;DHT22;53144;51.524;5.080;2023-04-24T03:21:27;8.76;97.11
66343;DHT22;53144;51.524;5.080;2023-04-24T03:23:53;8.86;97.08
66343;DHT22;53144;51.524;5.080;2023-04-24T03:26:18;8.73;96.68
66343;DHT22;53144;51.524;5.080;2023-04-24T03:28:43;8.76;96.50
66343;DHT22;53144;51.524;5.080;2023-04-24T03:31:09;8.75;96.71
66343;DHT22;53144;51.524;5.080;2023-04-24T03:33:34;8.84;96.75
66343;DHT22;53144;51.524;5.080;2023-04-24T03:36:00;8.81;96.77
66343;DHT22;53144;51.524;5.080;2023-04-24T03:38:26;8.73;96.76
66343;DHT22;53144;51.524;5.080;2023-04-24T03:40:51;8.72;96.86
66343;DHT22;53144;51.524;5.080;2023-04-24T03:43:16;8.72;97.22
66343;DHT22;53144;51.524;5.080;2023-04-24T03:45:42;8.70;97.60
66343;DHT22;53144;51.524;5.080;2023-04-24T03:48:07;8.63;97.46
66343;DHT22;53144;51.524;5.080;2023-04-24T03:50:33;8.66;97.68
66343;DHT22;53144;51.524;5.080;2023-04-24T03:52:58;8.65;98.13
66343;DHT22;53144;51.524;5.080;2023-04-24T03:55:23;8.63;98.06
66343;DHT22;53144;51.524;5.080;2023-04-24T03:57:49;8.63;98.14
66343;DHT22;53144;51.524;5.080;2023-04-24T04:00:14;8.59;98.23
66343;DHT22;53144;51.524;5.080;2023-04-24T04:02:40;8.58;98.31
66343;DHT22;53144;51.524;5.080;2023-04-24T04:05:06;8.55;98.30
66343;DHT22;53144;51.524;5.080;2023-04-24T04:07:33;8.55;98.15
66343;DHT22;53144;51.524;5.080;2023-04-24T04:09:58;8.56;98.49
66343;DHT22;53144;51.524;5.080;2023-04-24T04:12:23;8.62;98.36
66343;DHT22;53144;51.524;5.080;2023-04-24T04:14:49;8.62;98.89
66343;DHT22;53144;51.524;5.080;2023-04-24T04:17:14;8.58;98.52
66343;DHT22;53144;51.524;5.080;2023-04-24T04:19:40;8.59;98.89
66343;DHT22;53144;51.524;5.080;2023-04-24T04:22:05;8.58;99.02
66343;DHT22;53144;51.524;5.080;2023-04-24T04:24:33;8.59;99.17
66343;DHT22;53144;51.524;5.080;2023-04-24T04:26:58;8.55;99.38
66343;DHT22;53144;51.524;5.080;2023-04-24T04:29:24;8.55;99.51
66343;DHT22;53144;51.524;5.080;2023-04-24T04:31:49;8.53;99.40
66343;DHT22;53144;51.524;5.080;2023-04-24T04:34:15;8.58;99.27
66343;DHT22;53144;51.524;5.080;2023-04-24T04:36:41;8.56;99.63
66343;DHT22;53144;51.524;5.080;2023-04-24T04:39:08;8.58;99.81
66343;DHT22;53144;51.524;5.080;2023-04-24T04:41:33;8.55;99.85
66343;DHT22;53144;51.524;5.080;2023-04-24T04:44:01;8.59;99.84
66343;DHT22;53144;51.524;5.080;2023-04-24T04:46:26;8.52;99.63
66343;DHT22;53144;51.524;5.080;2023-04-24T04:48:53;8.49;99.80
66343;DHT22;53144;51.524;5.080;2023-04-24T04:51:18;8.58;99.99
66343;DHT22;53144;51.524;5.080;2023-04-24T04:53:43;8.53;99.96
66343;DHT22;53144;51.524;5.080;2023-04-24T04:56:09;8.53;99.94
66343;DHT22;53144;51.524;5.080;2023-04-24T04:58:34;8.49;99.22
66343;DHT22;53144;51.524;5.080;2023-04-24T05:00:59;8.46;99.13
66343;DHT22;53144;51.524;5.080;2023-04-24T05:03:25;8.52;99.27
66343;DHT22;53144;51.524;5.080;2023-04-24T05:05:50;8.46;99.25
66343;DHT22;53144;51.524;5.080;2023-04-24T05:08:15;8.46;99.23
66343;DHT22;53144;51.524;5.080;2023-04-24T05:10:41;8.45;99.52
66343;DHT22;53144;51.524;5.080;2023-04-24T05:13:06;8.39;99.22
66343;DHT22;53144;51.524;5.080;2023-04-24T05:15:31;8.39;99.41
66343;DHT22;53144;51.524;5.080;2023-04-24T05:17:57;8.38;99.59
66343;DHT22;53144;51.524;5.080;2023-04-24T05:20:22;8.30;99.58
66343;DHT22;53144;51.524;5.080;2023-04-24T05:22:48;8.30;99.90
66343;DHT22;53144;51.524;5.080;2023-04-24T05:25:13;8.25;99.76
66343;DHT22;53144;51.524;5.080;2023-04-24T05:27:38;8.22;99.51
66343;DHT22;53144;51.524;5.080;2023-04-24T05:30:04;8.17;99.57
66343;DHT22;53144;51.524;5.080;2023-04-24T05:32:30;8.21;99.79
66343;DHT22;53144;51.524;5.080;2023-04-24T05:34:55;8.18;99.71
66343;DHT22;53144;51.524;5.080;2023-04-24T05:37:21;8.18;99.84
66343;DHT22;53144;51.524;5.080;2023-04-24T05:39:46;8.21;99.99
66343;DHT22;53144;51.524;5.080;2023-04-24T05:42:11;8.18;99.94
66343;DHT22;53144;51.524;5.080;2023-04-24T05:44:37;8.18;99.75
66343;DHT22;53144;51.524;5.080;2023-04-24T05:47:02;8.17;99.76
66343;DHT22;53144;51.524;5.080;2023-04-24T05:49:27;8.14;99.97
66343;DHT22;53144;51.524;5.080;2023-04-24T05:51:53;8.15;99.93
66343;DHT22;53144;51.524;5.080;2023-04-24T05:54:18;8.12;99.60
66343;DHT22;53144;51.524;5.080;2023-04-24T05:56:43;8.14;99.99
66343;DHT22;53144;51.524;5.080;2023-04-24T05:59:09;8.12;99.89
66343;DHT22;53144;51.524;5.080;2023-04-24T06:01:34;8.12;99.99
66343;DHT22;53144;51.524;5.080;2023-04-24T06:04:02;8.12;99.39
66343;DHT22;53144;51.524;5.080;2023-04-24T06:06:28;8.11;99.59
66343;DHT22;53144;51.524;5.080;2023-04-24T06:08:54;8.15;99.75
66343;DHT22;53144;51.524;5.080;2023-04-24T06:11:19;8.18;99.96
66343;DHT22;53144;51.524;5.080;2023-04-24T06:13:45;8.12;99.99
66343;DHT22;53144;51.524;5.080;2023-04-24T06:16:10;8.14;99.73
66343;DHT22;53144;51.524;5.080;2023-04-24T06:18:36;8.20;99.97
66343;DHT22;53144;51.524;5.080;2023-04-24T06:21:01;8.15;99.99
66343;DHT22;53144;51.524;5.080;2023-04-24T06:23:27;8.18;99.88
66343;DHT22;53144;51.524;5.080;2023-04-24T06:25:52;8.20;99.62
66343;DHT22;53144;51.524;5.080;2023-04-24T06:28:18;8.15;99.98
66343;DHT22;53144;51.524;5.080;2023-04-24T06:30:43;8.20;99.88
66343;DHT22;53144;51.524;5.080;2023-04-24T06:33:09;8.22;99.50
66343;DHT22;53144;51.524;5.080;2023-04-24T06:35:34;8.20;99.36
66343;DHT22;53144;51.524;5.080;2023-04-24T06:38:00;8.17;99.27
66343;DHT22;53144;51.524;5.080;2023-04-24T06:40:25;8.20;99.60
66343;DHT22;53144;51.524;5.080;2023-04-24T06:42:51;8.18;99.10
66343;DHT22;53144;51.524;5.080;2023-04-24T06:45:16;8.20;98.74
66343;DHT22;53144;51.524;5.080;2023-04-24T06:47:42;8.18;99.36
66343;DHT22;53144;51.524;5.080;2023-04-24T06:50:07;8.20;99.87
66343;DHT22;53144;51.524;5.080;2023-04-24T06:52:33;8.21;99.69
66343;DHT22;53144;51.524;5.080;2023-04-24T06:55:04;8.20;99.67
66343;DHT22;53144;51.524;5.080;2023-04-24T06:57:31;8.17;99.63
66343;DHT22;53144;51.524;5.080;2023-04-24T06:59:56;8.17;99.95
66343;DHT22;53144;51.524;5.080;2023-04-24T07:02:22;8.15;99.29
66343;DHT22;53144;51.524;5.080;2023-04-24T07:04:47;8.18;99.99
66343;DHT22;53144;51.524;5.080;2023-04-24T07:07:13;8.12;99.02
66343;DHT22;53144;51.524;5.080;2023-04-24T07:09:40;8.14;99.12
66343;DHT22;53144;51.524;5.080;2023-04-24T07:12:10;8.12;98.60
66343;DHT22;53144;51.524;5.080;2023-04-24T07:14:36;8.14;98.51
66343;DHT22;53144;51.524;5.080;2023-04-24T07:17:04;8.17;97.98
66343;DHT22;53144;51.524;5.080;2023-04-24T07:19:30;8.12;97.94
66343;DHT22;53144;51.524;5.080;2023-04-24T07:21:56;8.11;97.64
66343;DHT22;53144;51.524;5.080;2023-04-24T07:24:23;8.10;97.74
66343;DHT22;53144;51.524;5.080;2023-04-24T07:26:51;8.08;98.00
66343;DHT22;53144;51.524;5.080;2023-04-24T07:29:17;8.12;98.84
66343;DHT22;53144;51.524;5.080;2023-04-24T07:31:42;8.14;98.95
66343;DHT22;53144;51.524;5.080;2023-04-24T07:34:07;8.11;98.49
66343;DHT22;53144;51.524;5.080;2023-04-24T07:36:33;8.14;98.86
66343;DHT22;53144;51.524;5.080;2023-04-24T07:38:58;8.15;99.39
66343;DHT22;53144;51.524;5.080;2023-04-24T07:41:23;8.18;99.38
66343;DHT22;53144;51.524;5.080;2023-04-24T07:43:49;8.22;99.16
66343;DHT22;53144;51.524;5.080;2023-04-24T07:46:14;8.21;99.52
66343;DHT22;53144;51.524;5.080;2023-04-24T07:48:40;8.20;99.12
66343;DHT22;53144;51.524;5.080;2023-04-24T07:51:05;8.21;99.29
66343;DHT22;53144;51.524;5.080;2023-04-24T07:53:31;8.21;99.29
66343;DHT22;53144;51.524;5.080;2023-04-24T07:55:56;8.21;99.41
66343;DHT22;53144;51.524;5.080;2023-04-24T07:58:21;8.20;98.87
66343;DHT22;53144;51.524;5.080;2023-04-24T08:00:47;8.14;98.55
66343;DHT22;53144;51.524;5.080;2023-04-24T08:03:12;8.18;98.21
66343;DHT22;53144;51.524;5.080;2023-04-24T08:05:38;8.20;98.18
66343;DHT22;53144;51.524;5.080;2023-04-24T08:08:03;8.18;97.36
66343;DHT22;53144;51.524;5.080;2023-04-24T08:10:29;8.30;97.59
66343;DHT22;53144;51.524;5.080;2023-04-24T08:12:54;8.27;97.23
66343;DHT22;53144;51.524;5.080;2023-04-24T08:15:20;8.30;96.68
66343;DHT22;53144;51.524;5.080;2023-04-24T08:17:46;8.34;97.05
66343;DHT22;53144;51.524;5.080;2023-04-24T08:20:11;8.34;96.80
66343;DHT22;53144;51.524;5.080;2023-04-24T08:22:39;8.38;97.28
66343;DHT22;53144;51.524;5.080;2023-04-24T08:25:05;8.41;96.35
66343;DHT22;53144;51.524;5.080;2023-04-24T08:27:31;8.51;94.93
66343;DHT22;53144;51.524;5.080;2023-04-24T08:29:57;8.69;95.57
66343;DHT22;53144;51.524;5.080;2023-04-24T08:32:23;8.77;95.19
66343;DHT22;53144;51.524;5.080;2023-04-24T08:34:48;8.84;95.73
66343;DHT22;53144;51.524;5.080;2023-04-24T08:37:13;8.79;95.22
66343;DHT22;53144;51.524;5.080;2023-04-24T08:39:39;8.68;95.45
66343;DHT22;53144;51.524;5.080;2023-04-24T08:42:04;8.45;95.24
66343;DHT22;53144;51.524;5.080;2023-04-24T08:44:34;8.38;96.31
66343;DHT22;53144;51.524;5.080;2023-04-24T08:47:04;8.30;95.50
66343;DHT22;53144;51.524;5.080;2023-04-24T08:49:30;8.24;94.43
66343;DHT22;53144;51.524;5.080;2023-04-24T08:51:56;8.31;95.74
66343;DHT22;53144;51.524;5.080;2023-04-24T08:54:21;8.37;95.70
66343;DHT22;53144;51.524;5.080;2023-04-24T08:56:48;8.46;95.28
66343;DHT22;53144;51.524;5.080;2023-04-24T08:59:15;8.60;94.92
66343;DHT22;53144;51.524;5.080;2023-04-24T09:01:41;8.73;94.07
66343;DHT22;53144;51.524;5.080;2023-04-24T09:04:08;8.69;95.38
66343;DHT22;53144;51.524;5.080;2023-04-24T09:06:38;8.79;95.81
66343;DHT22;53144;51.524;5.080;2023-04-24T09:09:03;8.87;95.32
66343;DHT22;53144;51.524;5.080;2023-04-24T09:11:31;8.68;94.01
66343;DHT22;53144;51.524;5.080;2023-04-24T09:13:57;8.68;95.38
66343;DHT22;53144;51.524;5.080;2023-04-24T09:16:25;8.53;94.35
66343;DHT22;53144;51.524;5.080;2023-04-24T09:18:50;8.46;93.01
66343;DHT22;53144;51.524;5.080;2023-04-24T09:21:16;8.44;91.83
66343;DHT22;53144;51.524;5.080;2023-04-24T09:23:41;8.39;90.41
66343;DHT22;53144;51.524;5.080;2023-04-24T09:26:09;8.42;90.20
66343;DHT22;53144;51.524;5.080;2023-04-24T09:28:36;8.56;90.58
66343;DHT22;53144;51.524;5.080;2023-04-24T09:31:16;8.73;91.17
66343;DHT22;53144;51.524;5.080;2023-04-24T09:34:01;8.90;90.21
66343;DHT22;53144;51.524;5.080;2023-04-24T09:36:32;8.93;88.06
66343;DHT22;53144;51.524;5.080;2023-04-24T09:39:03;9.06;88.71
66343;DHT22;53144;51.524;5.080;2023-04-24T09:41:31;9.28;88.35
66343;DHT22;53144;51.524;5.080;2023-04-24T09:44:11;9.32;89.12
66343;DHT22;53144;51.524;5.080;2023-04-24T09:46:36;9.34;86.97
66343;DHT22;53144;51.524;5.080;2023-04-24T09:49:09;9.30;86.92
66343;DHT22;53144;51.524;5.080;2023-04-24T09:51:37;9.42;87.77
66343;DHT22;53144;51.524;5.080;2023-04-24T09:54:04;9.51;85.13
66343;DHT22;53144;51.524;5.080;2023-04-24T09:56:33;9.69;87.38
66343;DHT22;53144;51.524;5.080;2023-04-24T09:59:06;9.52;83.94
66343;DHT22;53144;51.524;5.080;2023-04-24T10:01:32;9.40;84.15
66343;DHT22;53144;51.524;5.080;2023-04-24T10:03:58;9.32;85.41
66343;DHT22;53144;51.524;5.080;2023-04-24T10:06:31;9.24;84.98
66343;DHT22;53144;51.524;5.080;2023-04-24T10:08:56;9.32;86.63
66343;DHT22;53144;51.524;5.080;2023-04-24T10:11:25;9.16;84.40
66343;DHT22;53144;51.524;5.080;2023-04-24T10:13:51;9.07;84.24
66343;DHT22;53144;51.524;5.080;2023-04-24T10:16:17;9.04;83.02
66343;DHT22;53144;51.524;5.080;2023-04-24T10:18:43;9.14;84.07
66343;DHT22;53144;51.524;5.080;2023-04-24T10:21:09;9.09;83.89
66343;DHT22;53144;51.524;5.080;2023-04-24T10:23:35;9.13;83.68
66343;DHT22;53144;51.524;5.080;2023-04-24T10:26:01;9.30;84.95
66343;DHT22;53144;51.524;5.080;2023-04-24T10:28:27;9.30;84.33
66343;DHT22;53144;51.524;5.080;2023-04-24T10:30:54;9.49;85.05
66343;DHT22;53144;51.524;5.080;2023-04-24T10:33:21;9.45;82.24
66343;DHT22;53144;51.524;5.080;2023-04-24T10:35:48;9.61;83.29
66343;DHT22;53144;51.524;5.080;2023-04-24T10:38:22;9.72;83.34
66343;DHT22;53144;51.524;5.080;2023-04-24T10:40:57;9.86;82.89
66343;DHT22;53144;51.524;5.080;2023-04-24T10:43:33;9.81;82.26
66343;DHT22;53144;51.524;5.080;2023-04-24T10:46:03;10.07;83.64
66343;DHT22;53144;51.524;5.080;2023-04-24T10:48:28;10.17;82.40
66343;DHT22;53144;51.524;5.080;2023-04-24T10:50:54;9.77;79.97
66343;DHT22;53144;51.524;5.080;2023-04-24T10:53:20;9.86;80.87
66343;DHT22;53144;51.524;5.080;2023-04-24T10:55:50;9.88;81.58
66343;DHT22;53144;51.524;5.080;2023-04-24T10:58:21;9.81;82.62
66343;DHT22;53144;51.524;5.080;2023-04-24T11:00:56;9.79;82.75
66343;DHT22;53144;51.524;5.080;2023-04-24T11:03:32;9.68;81.73
66343;DHT22;53144;51.524;5.080;2023-04-24T11:06:01;9.57;82.89
66343;DHT22;53144;51.524;5.080;2023-04-24T11:08:39;9.75;82.24
66343;DHT22;53144;51.524;5.080;2023-04-24T11:11:12;9.58;83.10
66343;DHT22;53144;51.524;5.080;2023-04-24T11:16:40;9.71;82.73
66343;DHT22;53144;51.524;5.080;2023-04-24T11:21:40;9.58;82.36
66343;DHT22;53144;51.524;5.080;2023-04-24T11:27:18;9.63;82.42
66343;DHT22;53144;51.524;5.080;2023-04-24T11:32:39;9.86;81.65
66343;DHT22;53144;51.524;5.080;2023-04-24T11:35:13;9.98;81.80
66343;DHT22;53144;51.524;5.080;2023-04-24T11:37:41;10.20;81.90
66343;DHT22;53144;51.524;5.080;2023-04-24T11:40:11;10.20;80.81
66343;DHT22;53144;51.524;5.080;2023-04-24T11:42:38;10.24;79.98
66343;DHT22;53144;51.524;5.080;2023-04-24T11:45:09;10.30;80.93
66343;DHT22;53144;51.524;5.080;2023-04-24T11:47:35;10.53;81.01
66343;DHT22;53144;51.524;5.080;2023-04-24T11:50:00;10.60;80.75
66343;DHT22;53144;51.524;5.080;2023-04-24T11:52:27;10.82;80.63
66343;DHT22;53144;51.524;5.080;2023-04-24T11:54:52;10.71;78.99
66343;DHT22;53144;51.524;5.080;2023-04-24T11:57:24;10.75;79.66
66343;DHT22;53144;51.524;5.080;2023-04-24T11:59:51;10.48;78.81
66343;DHT22;53144;51.524;5.080;2023-04-24T12:02:23;10.53;78.92
66343;DHT22;53144;51.524;5.080;2023-04-24T12:04:49;10.56;78.37
66343;DHT22;53144;51.524;5.080;2023-04-24T12:07:15;10.47;77.87
66343;DHT22;53144;51.524;5.080;2023-04-24T12:09:45;10.14;78.59
66343;DHT22;53144;51.524;5.080;2023-04-24T12:12:12;10.24;78.74
66343;DHT22;53144;51.524;5.080;2023-04-24T12:14:43;10.10;77.98
66343;DHT22;53144;51.524;5.080;2023-04-24T12:17:08;10.29;79.36
66343;DHT22;53144;51.524;5.080;2023-04-24T12:19:33;9.90;78.95
66343;DHT22;53144;51.524;5.080;2023-04-24T12:22:03;9.67;80.23
66343;DHT22;53144;51.524;5.080;2023-04-24T12:24:30;9.79;80.39
66343;DHT22;53144;51.524;5.080;2023-04-24T12:26:55;9.90;81.05
66343;DHT22;53144;51.524;5.080;2023-04-24T12:29:22;10.03;80.48
66343;DHT22;53144;51.524;5.080;2023-04-24T12:31:47;10.17;80.89
66343;DHT22;53144;51.524;5.080;2023-04-24T12:34:19;10.20;81.01
66343;DHT22;53144;51.524;5.080;2023-04-24T12:36:46;9.92;80.12
66343;DHT22;53144;51.524;5.080;2023-04-24T12:39:18;10.17;82.47
66343;DHT22;53144;51.524;5.080;2023-04-24T12:42:11;10.19;80.24
66343;DHT22;53144;51.524;5.080;2023-04-24T12:44:36;10.33;82.48
66343;DHT22;53144;51.524;5.080;2023-04-24T12:47:02;10.13;81.30
66343;DHT22;53144;51.524;5.080;2023-04-24T12:49:29;9.92;82.12
66343;DHT22;53144;51.524;5.080;2023-04-24T12:51:55;9.55;83.03
66343;DHT22;53144;51.524;5.080;2023-04-24T12:54:20;9.04;85.99
66343;DHT22;53144;51.524;5.080;2023-04-24T12:56:46;8.72;88.54
66343;DHT22;53144;51.524;5.080;2023-04-24T12:59:11;8.75;90.45
66343;DHT22;53144;51.524;5.080;2023-04-24T13:01:36;8.48;90.90
66343;DHT22;53144;51.524;5.080;2023-04-24T13:04:02;8.72;91.24
66343;DHT22;53144;51.524;5.080;2023-04-24T13:06:27;8.91;91.73
66343;DHT22;53144;51.524;5.080;2023-04-24T13:08:52;9.17;90.65
66343;DHT22;53144;51.524;5.080;2023-04-24T13:11:20;9.78;90.19
66343;DHT22;53144;51.524;5.080;2023-04-24T13:13:46;10.21;86.60
66343;DHT22;53144;51.524;5.080;2023-04-24T13:16:11;10.16;86.37
66343;DHT22;53144;51.524;5.080;2023-04-24T13:18:37;10.46;85.30
66343;DHT22;53144;51.524;5.080;2023-04-24T13:21:02;10.36;84.35
66343;DHT22;53144;51.524;5.080;2023-04-24T13:23:28;9.86;85.26
66343;DHT22;53144;51.524;5.080;2023-04-24T13:25:54;10.02;86.03
66343;DHT22;53144;51.524;5.080;2023-04-24T13:28:22;9.81;85.21
66343;DHT22;53144;51.524;5.080;2023-04-24T13:30:48;9.69;85.66
66343;DHT22;53144;51.524;5.080;2023-04-24T13:33:13;9.69;84.83
66343;DHT22;53144;51.524;5.080;2023-04-24T13:35:39;10.34;85.03
66343;DHT22;53144;51.524;5.080;2023-04-24T13:38:04;10.50;80.60
66343;DHT22;53144;51.524;5.080;2023-04-24T13:40:31;10.43;81.57
66343;DHT22;53144;51.524;5.080;2023-04-24T13:42:57;9.62;80.64
66343;DHT22;53144;51.524;5.080;2023-04-24T13:45:22;9.72;83.34
66343;DHT22;53144;51.524;5.080;2023-04-24T13:47:47;9.62;82.42
66343;DHT22;53144;51.524;5.080;2023-04-24T13:50:13;9.21;82.81
66343;DHT22;53144;51.524;5.080;2023-04-24T13:52:38;9.38;84.49
66343;DHT22;53144;51.524;5.080;2023-04-24T13:55:04;9.41;85.09
66343;DHT22;53144;51.524;5.080;2023-04-24T13:57:29;9.37;85.06
66343;DHT22;53144;51.524;5.080;2023-04-24T13:59:57;9.13;84.83
66343;DHT22;53144;51.524;5.080;2023-04-24T14:02:26;9.18;84.43
66343;DHT22;53144;51.524;5.080;2023-04-24T14:04:51;8.96;85.58
66343;DHT22;53144;51.524;5.080;2023-04-24T14:07:17;9.13;85.13
66343;DHT22;53144;51.524;5.080;2023-04-24T14:09:42;9.45;85.78
66343;DHT22;53144;51.524;5.080;2023-04-24T14:12:07;9.59;81.41
66343;DHT22;53144;51.524;5.080;2023-04-24T14:14:33;10.00;81.36
66343;DHT22;53144;51.524;5.080;2023-04-24T14:16:58;9.86;79.81
66343;DHT22;53144;51.524;5.080;2023-04-24T14:19:23;10.13;80.45
66343;DHT22;53144;51.524;5.080;2023-04-24T14:21:49;10.14;79.35
66343;DHT22;53144;51.524;5.080;2023-04-24T14:24:14;9.93;80.40
66343;DHT22;53144;51.524;5.080;2023-04-24T14:26:40;9.88;81.19
66343;DHT22;53144;51.524;5.080;2023-04-24T14:29:06;9.96;79.97
66343;DHT22;53144;51.524;5.080;2023-04-24T14:31:31;10.36;80.72
66343;DHT22;53144;51.524;5.080;2023-04-24T14:33:56;10.58;79.17
66343;DHT22;53144;51.524;5.080;2023-04-24T14:36:22;10.38;77.11
66343;DHT22;53144;51.524;5.080;2023-04-24T14:38:48;10.48;77.22
66343;DHT22;53144;51.524;5.080;2023-04-24T14:41:14;10.36;77.71
66343;DHT22;53144;51.524;5.080;2023-04-24T14:43:39;10.72;77.81
66343;DHT22;53144;51.524;5.080;2023-04-24T14:46:05;10.54;74.83
66343;DHT22;53144;51.524;5.080;2023-04-24T14:48:30;10.48;75.70
66343;DHT22;53144;51.524;5.080;2023-04-24T14:50:55;10.51;76.01
66343;DHT22;53144;51.524;5.080;2023-04-24T14:53:21;10.60;75.70
66343;DHT22;53144;51.524;5.080;2023-04-24T14:55:46;10.71;76.04
66343;DHT22;53144;51.524;5.080;2023-04-24T14:58:11;10.64;74.85
66343;DHT22;53144;51.524;5.080;2023-04-24T15:00:37;10.60;73.67
66343;DHT22;53144;51.524;5.080;2023-04-24T15:03:02;10.63;74.95
66343;DHT22;53144;51.524;5.080;2023-04-24T15:05:28;10.54;73.44
66343;DHT22;53144;51.524;5.080;2023-04-24T15:07:54;10.51;74.97
66343;DHT22;53144;51.524;5.080;2023-04-24T15:10:19;10.69;75.31
66343;DHT22;53144;51.524;5.080;2023-04-24T15:12:48;10.75;74.92
66343;DHT22;53144;51.524;5.080;2023-04-24T15:15:13;10.60;74.46
66343;DHT22;53144;51.524;5.080;2023-04-24T15:17:38;10.50;75.43
66343;DHT22;53144;51.524;5.080;2023-04-24T15:20:04;10.64;76.30
66343;DHT22;53144;51.524;5.080;2023-04-24T15:22:31;10.46;75.61
66343;DHT22;53144;51.524;5.080;2023-04-24T15:24:56;10.30;76.90
66343;DHT22;53144;51.524;5.080;2023-04-24T15:27:22;9.78;78.77
66343;DHT22;53144;51.524;5.080;2023-04-24T15:29:47;9.85;78.59
66343;DHT22;53144;51.524;5.080;2023-04-24T15:32:12;9.83;77.86
66343;DHT22;53144;51.524;5.080;2023-04-24T15:34:38;9.98;77.74
66343;DHT22;53144;51.524;5.080;2023-04-24T15:37:03;10.26;78.93
66343;DHT22;53144;51.524;5.080;2023-04-24T15:39:29;10.38;77.28
66343;DHT22;53144;51.524;5.080;2023-04-24T15:41:55;10.48;78.04
66343;DHT22;53144;51.524;5.080;2023-04-24T15:44:21;10.54;77.77
66343;DHT22;53144;51.524;5.080;2023-04-24T15:46:46;10.61;75.65
66343;DHT22;53144;51.524;5.080;2023-04-24T15:49:11;10.79;77.81